Flight Track Log - Related Links

Times and Time Zones

All times are in EDT time to prevent confusion due to time zone crossing. See the N885QS flight status page for this flight to view local times or setup timezone preferences in your user account.

Time Position Orientation Groundspeed Altitude Reporting Facility
EDT Latitude Longitude Course Direction KTS MPH feet Rate Location/Type
Tue 10:47:04 PM 42.4258 -83.0247 43° Northeast 193 222 1,300  Level Cleveland Center
Tue 10:48:28 PM 42.4644 -82.9756 142° Southeast 185 213 4,600 3,167 Climbing Cleveland Center
Tue 10:49:28 PM 42.3992 -82.9056 105° East 197 227 8,900 3,450 Climbing Cleveland Center
Tue 10:50:28 PM 42.3764 -82.7897 92° East 265 305 11,500 2,200 Climbing Cleveland Center
Tue 10:51:28 PM 42.3725 -82.6631 92° East 354 407 13,300 2,400 Climbing Cleveland Center
Tue 10:52:28 PM 42.3692 -82.5056 92° East 390 449 16,300 3,550 Climbing Cleveland Center
Tue 10:53:28 PM 42.3653 -82.3592 93° East 400 460 20,400 3,150 Climbing Cleveland Center
Tue 10:54:28 PM 42.3589 -82.2158 93° East 389 448 22,600 1,850 Climbing Cleveland Center
Tue 10:55:28 PM 42.3528 -82.0639 94° East 389 448 24,100 1,550 Climbing Cleveland Center
Tue 10:56:28 PM 42.3442 -81.9036 93° East 414 476 25,700 1,550 Climbing Cleveland Center
Tue 10:57:28 PM 42.3378 -81.7406 93° East 428 493 27,200 1,500 Climbing Cleveland Center
Tue 10:58:28 PM 42.3311 -81.5606 95° East 438 504 28,700 1,500 Climbing Cleveland Center
Tue 10:59:28 PM 42.3197 -81.3892 92° East 444 511 30,200 1,450 Climbing Cleveland Center
Tue 11:00:28 PM 42.3147 -81.2233 94° East 444 511 31,600 1,200 Climbing Cleveland Center
Tue 11:01:28 PM 42.3050 -81.0492 91° East 444 511 32,600 1,000 Climbing Cleveland Center
Tue 11:02:28 PM 42.3036 -80.8781 84° East 455 524 33,600 1,000 Climbing Cleveland Center
Tue 11:03:28 PM 42.3164 -80.7094 85° East 460 529 34,600 700 Climbing Cleveland Center
Tue 11:04:28 PM 42.3269 -80.5356 85° East 455 524 35,000 200 Climbing Cleveland Center
Tue 11:05:28 PM 42.3369 -80.3642 87° East 461 531 35,000  Level Cleveland Center
Tue 11:06:28 PM 42.3428 -80.2067 85° East 466 536 35,000  Level Cleveland Center
Tue 11:07:28 PM 42.3547 -80.0269 85° East 466 536 35,000  Level Cleveland Center
Tue 11:08:28 PM 42.3661 -79.8356 87° East 461 531 35,000  Level Cleveland Center
Tue 11:09:28 PM 42.3731 -79.6642 86° East 461 531 35,000  Level Cleveland Center
Tue 11:10:28 PM 42.3819 -79.4869 86° East 461 531 35,000  Level Cleveland Center
Tue 11:11:28 PM 42.3906 -79.3097 86° East 461 531 35,000  Level Cleveland Center
Tue 11:12:28 PM 42.3992 -79.1353 86° East 461 531 35,000  Level Cleveland Center
Tue 11:13:28 PM 42.4092 -78.9578 86° East 461 531 35,000  Level Cleveland Center
Tue 11:14:28 PM 42.4172 -78.7972 87° East 467 537 35,000  Level Cleveland Center
Tue 11:15:28 PM 42.4247 -78.6197 87° East 467 537 35,000  Level Cleveland Center
Tue 11:16:28 PM 42.4319 -78.4425 87° East 472 543 35,000  Level Cleveland Center
Tue 11:17:28 PM 42.4389 -78.2647 87° East 472 543 35,000 -300 Level Cleveland Center
Tue 11:18:28 PM 42.4458 -78.0872 88° East 472 543 34,400 -700 Descending Cleveland Center
Tue 11:19:28 PM 42.4506 -77.9350 87° East 466 536 33,600 -700 Descending Cleveland Center
Tue 11:20:28 PM 42.4567 -77.7464 87° East 455 524 33,000 -232 Descending Cleveland Center
Tue 11:22:03 PM 42.4675 -77.4400 88° East 473 544 33,000  Level Boston Center
Tue 11:23:03 PM 42.4731 -77.2628 88° East 473 544 33,000  Level Boston Center
Tue 11:24:03 PM 42.4786 -77.0803 88° East 478 550 33,000  Level Boston Center
Tue 11:25:03 PM 42.4833 -76.9089 87° East 472 543 33,000  Level Boston Center
Tue 11:26:03 PM 42.4900 -76.7403 88° East 451 519 33,000  Level Boston Center
Tue 11:27:03 PM 42.4942 -76.5658 96° East 451 519 33,000  Level Boston Center
Tue 11:28:03 PM 42.4817 -76.3961 104° East 457 526 33,000  Level Boston Center
Tue 11:29:03 PM 42.4533 -76.2478 106° East 462 532 33,000  Level Boston Center
Tue 11:30:03 PM 42.4169 -76.0794 106° East 462 532 33,000 -50 Level Boston Center
Tue 11:31:03 PM 42.3828 -75.9144 106° East 462 532 32,900 -1,150 Descending Boston Center
Tue 11:32:03 PM 42.3481 -75.7497 106° East 462 532 30,700 -2,300 Descending Boston Center
Tue 11:33:03 PM 42.3131 -75.5875 105° East 457 526 28,300 -2,400 Descending Boston Center
Tue 11:34:03 PM 42.2800 -75.4175 106° East 457 526 25,900 -2,400 Descending Boston Center
Tue 11:35:03 PM 42.2467 -75.2589 108° East 457 526 23,500 -2,300 Descending Boston Center
Tue 11:36:03 PM 42.2106 -75.1086 108° East 440 506 21,300 -2,150 Descending Boston Center
Tue 11:37:03 PM 42.1764 -74.9644 119° Southeast 418 481 19,200 -1,150 Descending Boston Center
Tue 11:38:03 PM 42.1231 -74.8333 119° Southeast 400 460 19,000 -100 Descending Boston Center
Tue 11:39:03 PM 42.0672 -74.6997 119° Southeast 393 452 19,000 -750 Level Boston Center
Tue 11:40:03 PM 42.0075 -74.5525 120° Southeast 414 476 17,500 -1,500 Descending Boston Center
Tue 11:41:03 PM 41.9597 -74.4419 122° Southeast 396 456 16,000 -1,650 Descending Boston Center
Tue 11:42:03 PM 41.9014 -74.3172 146° Southeast 374 430 14,200 -1,700 Descending Boston Center
Tue 11:43:03 PM 41.8294 -74.2511 145° Southeast 349 402 12,600 -1,800 Descending Boston Center
Tue 11:44:03 PM 41.7411 -74.1678 145° Southeast 349 402 10,600 -1,350 Descending Boston Center
Tue 11:45:03 PM 41.6589 -74.0906 144° Southeast 354 407 9,900 -657 Descending Boston Center
Tue 11:46:20 PM 41.5667 -74.0000 151° Southeast 282 325 9,100 -1,007 Descending New York TRACON
Tue 11:47:20 PM 41.5000 -73.9500 143° Southeast 277 319 7,600 -1,400 Descending New York TRACON
Tue 11:48:20 PM 41.4500 -73.9000 143° Southeast 262 302 6,300 -800 Descending New York TRACON
Tue 11:49:20 PM 41.3833 -73.8333 143° Southeast 257 296 6,000 -150 Descending New York TRACON
Tue 11:50:20 PM 41.3333 -73.7833 151° Southeast 256 295 6,000  Level New York TRACON
Tue 11:51:20 PM 41.2667 -73.7333 143° Southeast 262 302 6,000  Level New York TRACON
Tue 11:52:20 PM 41.2167 -73.6833 143° Southeast 255 293 6,000 -850 Level New York TRACON
Tue 11:53:20 PM 41.1500 -73.6167 153° Southeast 251 289 4,300 -1,500 Descending New York TRACON
Tue 11:54:20 PM 41.1000 -73.5833 143° Southeast 241 277 3,000 -650 Descending New York TRACON
Tue 11:55:20 PM 41.0500 -73.5333 194° South 221 254 3,000  Level New York TRACON
Tue 11:56:20 PM 41.0000 -73.5500 246° West 172 198 3,000 -368 Level New York TRACON
Tue 11:57:14 PM 40.9833 -73.6000 294° West 166 191 2,300 -579 Descending New York TRACON
Tue 11:58:14 PM 41.0000 -73.6500 323° Northwest 149 171 1,900 -550 Descending New York TRACON
Tue 11:59:14 PM 41.0333 -73.6833 323° Northwest 116 133 1,200 -700 Descending New York TRACON

Login

Don't have an account? Register now (free) for customized features, flight alerts, and more!